sensor_id;sensor_type;location;lat;lon;timestamp;P1;durP1;ratioP1;P2;durP2;ratioP2
13660;SDS011;6903;49.480;11.102;2022-09-29T00:00:23;24.67;;;17.83;;
13660;SDS011;6903;49.480;11.102;2022-09-29T00:02:49;24.37;;;17.97;;
13660;SDS011;6903;49.480;11.102;2022-09-29T00:05:14;23.93;;;17.27;;
13660;SDS011;6903;49.480;11.102;2022-09-29T00:07:39;26.83;;;17.80;;
13660;SDS011;6903;49.480;11.102;2022-09-29T00:10:05;24.80;;;17.70;;
13660;SDS011;6903;49.480;11.102;2022-09-29T00:12:30;24.53;;;17.30;;
13660;SDS011;6903;49.480;11.102;2022-09-29T00:14:56;26.90;;;18.03;;
13660;SDS011;6903;49.480;11.102;2022-09-29T00:17:21;27.90;;;19.17;;
13660;SDS011;6903;49.480;11.102;2022-09-29T00:19:46;24.27;;;17.70;;
13660;SDS011;6903;49.480;11.102;2022-09-29T00:22:12;25.73;;;18.27;;
13660;SDS011;6903;49.480;11.102;2022-09-29T00:24:37;29.27;;;17.83;;
13660;SDS011;6903;49.480;11.102;2022-09-29T00:27:02;25.77;;;18.00;;
13660;SDS011;6903;49.480;11.102;2022-09-29T00:29:28;25.47;;;18.53;;
13660;SDS011;6903;49.480;11.102;2022-09-29T00:31:53;27.00;;;18.33;;
13660;SDS011;6903;49.480;11.102;2022-09-29T00:34:18;28.00;;;18.23;;
13660;SDS011;6903;49.480;11.102;2022-09-29T00:36:44;27.77;;;18.80;;
13660;SDS011;6903;49.480;11.102;2022-09-29T00:39:10;31.03;;;21.23;;
13660;SDS011;6903;49.480;11.102;2022-09-29T00:41:36;30.63;;;22.73;;
13660;SDS011;6903;49.480;11.102;2022-09-29T00:44:48;29.93;;;21.87;;
13660;SDS011;6903;49.480;11.102;2022-09-29T00:47:09;30.43;;;21.67;;
13660;SDS011;6903;49.480;11.102;2022-09-29T00:49:42;32.43;;;22.47;;
13660;SDS011;6903;49.480;11.102;2022-09-29T00:52:31;32.40;;;21.47;;
13660;SDS011;6903;49.480;11.102;2022-09-29T00:55:07;30.47;;;22.60;;
13660;SDS011;6903;49.480;11.102;2022-09-29T00:57:51;30.97;;;22.17;;
13660;SDS011;6903;49.480;11.102;2022-09-29T01:00:20;31.20;;;21.70;;
13660;SDS011;6903;49.480;11.102;2022-09-29T01:02:48;27.67;;;19.20;;
13660;SDS011;6903;49.480;11.102;2022-09-29T01:05:18;22.20;;;17.00;;
13660;SDS011;6903;49.480;11.102;2022-09-29T01:07:47;23.77;;;16.37;;
13660;SDS011;6903;49.480;11.102;2022-09-29T01:10:13;23.23;;;16.67;;
13660;SDS011;6903;49.480;11.102;2022-09-29T01:12:41;25.80;;;15.83;;
13660;SDS011;6903;49.480;11.102;2022-09-29T01:15:09;26.63;;;15.77;;
13660;SDS011;6903;49.480;11.102;2022-09-29T01:17:35;23.60;;;15.27;;
13660;SDS011;6903;49.480;11.102;2022-09-29T01:20:03;19.93;;;13.07;;
13660;SDS011;6903;49.480;11.102;2022-09-29T01:28:47;15.93;;;12.60;;
13660;SDS011;6903;49.480;11.102;2022-09-29T01:31:29;14.83;;;11.70;;
13660;SDS011;6903;49.480;11.102;2022-09-29T01:36:47;17.03;;;11.83;;
13660;SDS011;6903;49.480;11.102;2022-09-29T01:41:49;16.60;;;12.53;;
13660;SDS011;6903;49.480;11.102;2022-09-29T01:47:08;16.37;;;12.57;;
13660;SDS011;6903;49.480;11.102;2022-09-29T01:49:39;17.37;;;13.43;;
13660;SDS011;6903;49.480;11.102;2022-09-29T01:52:10;22.07;;;13.83;;
13660;SDS011;6903;49.480;11.102;2022-09-29T01:54:49;18.60;;;12.57;;
13660;SDS011;6903;49.480;11.102;2022-09-29T02:00:05;18.97;;;14.13;;
13660;SDS011;6903;49.480;11.102;2022-09-29T02:03:18;19.83;;;13.53;;
13660;SDS011;6903;49.480;11.102;2022-09-29T02:05:28;16.77;;;13.03;;
13660;SDS011;6903;49.480;11.102;2022-09-29T02:08:21;20.70;;;13.73;;
13660;SDS011;6903;49.480;11.102;2022-09-29T02:10:55;17.63;;;13.90;;
13660;SDS011;6903;49.480;11.102;2022-09-29T02:13:26;18.87;;;13.73;;
13660;SDS011;6903;49.480;11.102;2022-09-29T02:16:02;18.70;;;12.87;;
13660;SDS011;6903;49.480;11.102;2022-09-29T02:18:39;17.40;;;12.80;;
13660;SDS011;6903;49.480;11.102;2022-09-29T02:21:11;18.40;;;13.30;;
13660;SDS011;6903;49.480;11.102;2022-09-29T02:23:36;17.23;;;13.00;;
13660;SDS011;6903;49.480;11.102;2022-09-29T02:26:02;19.73;;;13.33;;
13660;SDS011;6903;49.480;11.102;2022-09-29T02:28:28;19.77;;;14.03;;
13660;SDS011;6903;49.480;11.102;2022-09-29T02:30:53;20.73;;;13.70;;
13660;SDS011;6903;49.480;11.102;2022-09-29T02:33:19;16.30;;;13.10;;
13660;SDS011;6903;49.480;11.102;2022-09-29T02:42:04;17.57;;;13.33;;
13660;SDS011;6903;49.480;11.102;2022-09-29T02:44:33;19.20;;;13.60;;
13660;SDS011;6903;49.480;11.102;2022-09-29T02:53:13;21.00;;;13.20;;
13660;SDS011;6903;49.480;11.102;2022-09-29T02:55:34;17.87;;;12.93;;
13660;SDS011;6903;49.480;11.102;2022-09-29T02:58:12;18.23;;;13.53;;
13660;SDS011;6903;49.480;11.102;2022-09-29T03:00:42;21.30;;;13.73;;
13660;SDS011;6903;49.480;11.102;2022-09-29T03:03:09;18.93;;;14.37;;
13660;SDS011;6903;49.480;11.102;2022-09-29T03:05:34;19.03;;;13.20;;
13660;SDS011;6903;49.480;11.102;2022-09-29T03:08:00;18.93;;;14.07;;
13660;SDS011;6903;49.480;11.102;2022-09-29T03:10:25;25.80;;;14.93;;
13660;SDS011;6903;49.480;11.102;2022-09-29T03:12:51;20.83;;;14.07;;
13660;SDS011;6903;49.480;11.102;2022-09-29T03:15:16;21.63;;;13.53;;
13660;SDS011;6903;49.480;11.102;2022-09-29T03:17:43;18.10;;;13.50;;
13660;SDS011;6903;49.480;11.102;2022-09-29T03:20:09;21.33;;;14.80;;
13660;SDS011;6903;49.480;11.102;2022-09-29T03:22:35;18.73;;;14.87;;
13660;SDS011;6903;49.480;11.102;2022-09-29T03:25:01;25.60;;;17.10;;
13660;SDS011;6903;49.480;11.102;2022-09-29T03:27:30;22.83;;;14.93;;
13660;SDS011;6903;49.480;11.102;2022-09-29T03:29:55;25.33;;;15.93;;
13660;SDS011;6903;49.480;11.102;2022-09-29T03:32:21;23.50;;;15.63;;
13660;SDS011;6903;49.480;11.102;2022-09-29T03:34:46;21.80;;;15.70;;
13660;SDS011;6903;49.480;11.102;2022-09-29T03:37:11;22.07;;;15.60;;
13660;SDS011;6903;49.480;11.102;2022-09-29T03:39:37;21.77;;;15.60;;
13660;SDS011;6903;49.480;11.102;2022-09-29T03:42:02;23.27;;;16.23;;
13660;SDS011;6903;49.480;11.102;2022-09-29T03:44:27;28.27;;;17.00;;
13660;SDS011;6903;49.480;11.102;2022-09-29T03:46:53;27.60;;;17.70;;
13660;SDS011;6903;49.480;11.102;2022-09-29T03:49:18;28.03;;;18.17;;
13660;SDS011;6903;49.480;11.102;2022-09-29T03:51:43;39.80;;;30.37;;
13660;SDS011;6903;49.480;11.102;2022-09-29T03:54:09;29.97;;;20.40;;
13660;SDS011;6903;49.480;11.102;2022-09-29T03:56:35;29.37;;;18.70;;
13660;SDS011;6903;49.480;11.102;2022-09-29T03:59:01;28.47;;;19.20;;
13660;SDS011;6903;49.480;11.102;2022-09-29T04:01:29;30.07;;;18.47;;
13660;SDS011;6903;49.480;11.102;2022-09-29T04:03:55;27.83;;;18.47;;
13660;SDS011;6903;49.480;11.102;2022-09-29T04:06:21;33.23;;;23.03;;
13660;SDS011;6903;49.480;11.102;2022-09-29T04:08:46;41.90;;;28.50;;
13660;SDS011;6903;49.480;11.102;2022-09-29T04:11:13;41.47;;;29.53;;
13660;SDS011;6903;49.480;11.102;2022-09-29T04:13:39;36.27;;;22.27;;
13660;SDS011;6903;49.480;11.102;2022-09-29T04:16:04;31.77;;;20.43;;
13660;SDS011;6903;49.480;11.102;2022-09-29T04:18:30;32.20;;;19.73;;
13660;SDS011;6903;49.480;11.102;2022-09-29T04:21:03;44.50;;;32.87;;
13660;SDS011;6903;49.480;11.102;2022-09-29T04:23:30;37.63;;;25.70;;
13660;SDS011;6903;49.480;11.102;2022-09-29T04:25:56;32.30;;;20.87;;
13660;SDS011;6903;49.480;11.102;2022-09-29T04:28:22;40.20;;;28.77;;
13660;SDS011;6903;49.480;11.102;2022-09-29T04:30:48;40.77;;;24.03;;
13660;SDS011;6903;49.480;11.102;2022-09-29T04:33:14;36.87;;;21.63;;
13660;SDS011;6903;49.480;11.102;2022-09-29T04:35:39;33.73;;;20.73;;
13660;SDS011;6903;49.480;11.102;2022-09-29T04:38:04;36.60;;;20.20;;
13660;SDS011;6903;49.480;11.102;2022-09-29T04:40:32;37.07;;;20.80;;
13660;SDS011;6903;49.480;11.102;2022-09-29T04:42:58;44.40;;;26.30;;
13660;SDS011;6903;49.480;11.102;2022-09-29T04:45:23;44.80;;;26.67;;
13660;SDS011;6903;49.480;11.102;2022-09-29T04:47:48;58.17;;;37.77;;
13660;SDS011;6903;49.480;11.102;2022-09-29T04:50:14;45.27;;;25.77;;
13660;SDS011;6903;49.480;11.102;2022-09-29T04:52:40;58.17;;;35.20;;
13660;SDS011;6903;49.480;11.102;2022-09-29T04:55:07;47.77;;;28.00;;
13660;SDS011;6903;49.480;11.102;2022-09-29T04:57:35;44.80;;;24.70;;
13660;SDS011;6903;49.480;11.102;2022-09-29T05:00:01;41.73;;;25.57;;
13660;SDS011;6903;49.480;11.102;2022-09-29T05:02:27;54.13;;;27.50;;
13660;SDS011;6903;49.480;11.102;2022-09-29T05:04:52;53.17;;;27.07;;
13660;SDS011;6903;49.480;11.102;2022-09-29T05:07:18;52.63;;;27.70;;
13660;SDS011;6903;49.480;11.102;2022-09-29T05:09:43;46.83;;;27.80;;
13660;SDS011;6903;49.480;11.102;2022-09-29T05:12:08;46.97;;;26.77;;
13660;SDS011;6903;49.480;11.102;2022-09-29T05:14:34;48.70;;;26.17;;
13660;SDS011;6903;49.480;11.102;2022-09-29T05:16:59;48.37;;;27.00;;
13660;SDS011;6903;49.480;11.102;2022-09-29T05:19:24;45.90;;;26.17;;
13660;SDS011;6903;49.480;11.102;2022-09-29T05:21:50;40.83;;;23.40;;
13660;SDS011;6903;49.480;11.102;2022-09-29T05:24:15;51.63;;;27.03;;
13660;SDS011;6903;49.480;11.102;2022-09-29T05:26:41;46.60;;;26.23;;
13660;SDS011;6903;49.480;11.102;2022-09-29T05:29:06;43.77;;;24.53;;
13660;SDS011;6903;49.480;11.102;2022-09-29T05:31:32;46.67;;;27.60;;
13660;SDS011;6903;49.480;11.102;2022-09-29T05:33:57;45.63;;;25.67;;
13660;SDS011;6903;49.480;11.102;2022-09-29T05:36:23;46.80;;;28.13;;
13660;SDS011;6903;49.480;11.102;2022-09-29T05:38:48;43.90;;;25.73;;
13660;SDS011;6903;49.480;11.102;2022-09-29T05:41:14;46.67;;;28.97;;
13660;SDS011;6903;49.480;11.102;2022-09-29T05:43:46;40.40;;;25.07;;
13660;SDS011;6903;49.480;11.102;2022-09-29T05:46:13;40.73;;;22.57;;
13660;SDS011;6903;49.480;11.102;2022-09-29T05:48:39;38.03;;;22.93;;
13660;SDS011;6903;49.480;11.102;2022-09-29T05:51:14;40.13;;;22.63;;
13660;SDS011;6903;49.480;11.102;2022-09-29T05:53:41;43.03;;;24.40;;
13660;SDS011;6903;49.480;11.102;2022-09-29T05:56:11;34.50;;;22.63;;
13660;SDS011;6903;49.480;11.102;2022-09-29T05:58:39;34.97;;;21.20;;
13660;SDS011;6903;49.480;11.102;2022-09-29T06:01:09;35.00;;;19.73;;
13660;SDS011;6903;49.480;11.102;2022-09-29T06:03:36;28.53;;;18.60;;
13660;SDS011;6903;49.480;11.102;2022-09-29T06:06:11;25.73;;;17.30;;
13660;SDS011;6903;49.480;11.102;2022-09-29T06:08:38;16.87;;;12.80;;
13660;SDS011;6903;49.480;11.102;2022-09-29T06:13:31;13.77;;;11.17;;
13660;SDS011;6903;49.480;11.102;2022-09-29T06:15:59;13.97;;;11.17;;
13660;SDS011;6903;49.480;11.102;2022-09-29T06:18:25;12.90;;;9.60;;
13660;SDS011;6903;49.480;11.102;2022-09-29T06:20:50;11.80;;;9.43;;
13660;SDS011;6903;49.480;11.102;2022-09-29T06:23:16;10.33;;;7.70;;
13660;SDS011;6903;49.480;11.102;2022-09-29T06:25:41;9.60;;;8.03;;
13660;SDS011;6903;49.480;11.102;2022-09-29T06:28:06;10.60;;;8.00;;
13660;SDS011;6903;49.480;11.102;2022-09-29T06:30:31;11.33;;;7.60;;
13660;SDS011;6903;49.480;11.102;2022-09-29T06:32:57;7.67;;;6.77;;
13660;SDS011;6903;49.480;11.102;2022-09-29T06:35:22;8.53;;;6.70;;
13660;SDS011;6903;49.480;11.102;2022-09-29T06:38:06;8.33;;;6.83;;
13660;SDS011;6903;49.480;11.102;2022-09-29T06:40:32;14.83;;;7.77;;
13660;SDS011;6903;49.480;11.102;2022-09-29T06:42:57;14.40;;;8.20;;
13660;SDS011;6903;49.480;11.102;2022-09-29T06:45:23;10.43;;;7.80;;
13660;SDS011;6903;49.480;11.102;2022-09-29T06:47:48;8.97;;;7.30;;
13660;SDS011;6903;49.480;11.102;2022-09-29T06:50:13;11.67;;;8.00;;
13660;SDS011;6903;49.480;11.102;2022-09-29T06:52:39;9.23;;;7.50;;
13660;SDS011;6903;49.480;11.102;2022-09-29T06:55:04;10.57;;;8.50;;
13660;SDS011;6903;49.480;11.102;2022-09-29T06:57:30;12.37;;;8.70;;
13660;SDS011;6903;49.480;11.102;2022-09-29T06:59:55;12.33;;;9.27;;
13660;SDS011;6903;49.480;11.102;2022-09-29T07:02:21;12.10;;;9.30;;
13660;SDS011;6903;49.480;11.102;2022-09-29T07:04:46;9.23;;;7.90;;
13660;SDS011;6903;49.480;11.102;2022-09-29T07:07:13;10.50;;;8.67;;
13660;SDS011;6903;49.480;11.102;2022-09-29T07:09:38;9.53;;;8.53;;
13660;SDS011;6903;49.480;11.102;2022-09-29T07:12:04;9.43;;;8.00;;
13660;SDS011;6903;49.480;11.102;2022-09-29T07:14:30;9.40;;;8.50;;
13660;SDS011;6903;49.480;11.102;2022-09-29T07:16:55;9.57;;;8.33;;
13660;SDS011;6903;49.480;11.102;2022-09-29T07:19:23;11.13;;;9.43;;
13660;SDS011;6903;49.480;11.102;2022-09-29T07:21:48;8.73;;;7.37;;
13660;SDS011;6903;49.480;11.102;2022-09-29T07:24:15;9.40;;;7.30;;
13660;SDS011;6903;49.480;11.102;2022-09-29T07:26:41;9.33;;;7.47;;
13660;SDS011;6903;49.480;11.102;2022-09-29T07:29:06;8.00;;;7.17;;
13660;SDS011;6903;49.480;11.102;2022-09-29T07:31:32;8.20;;;6.50;;
13660;SDS011;6903;49.480;11.102;2022-09-29T07:33:57;7.23;;;6.53;;
13660;SDS011;6903;49.480;11.102;2022-09-29T07:36:22;7.87;;;5.90;;
13660;SDS011;6903;49.480;11.102;2022-09-29T07:38:48;6.53;;;5.80;;
13660;SDS011;6903;49.480;11.102;2022-09-29T07:41:15;8.27;;;5.87;;
13660;SDS011;6903;49.480;11.102;2022-09-29T07:43:42;7.63;;;6.07;;
13660;SDS011;6903;49.480;11.102;2022-09-29T07:46:08;7.23;;;5.50;;
13660;SDS011;6903;49.480;11.102;2022-09-29T07:48:34;6.73;;;6.03;;
13660;SDS011;6903;49.480;11.102;2022-09-29T07:51:01;7.43;;;6.33;;
13660;SDS011;6903;49.480;11.102;2022-09-29T07:53:32;7.03;;;5.47;;
13660;SDS011;6903;49.480;11.102;2022-09-29T07:56:18;7.20;;;5.47;;
13660;SDS011;6903;49.480;11.102;2022-09-29T07:58:45;7.37;;;5.83;;
13660;SDS011;6903;49.480;11.102;2022-09-29T08:01:12;6.57;;;5.97;;
13660;SDS011;6903;49.480;11.102;2022-09-29T08:03:40;9.20;;;6.20;;
13660;SDS011;6903;49.480;11.102;2022-09-29T08:06:13;6.93;;;5.53;;
13660;SDS011;6903;49.480;11.102;2022-09-29T08:08:39;6.80;;;6.10;;
13660;SDS011;6903;49.480;11.102;2022-09-29T08:11:06;7.00;;;5.80;;
13660;SDS011;6903;49.480;11.102;2022-09-29T08:13:33;6.90;;;5.67;;
13660;SDS011;6903;49.480;11.102;2022-09-29T08:16:00;6.87;;;5.07;;
13660;SDS011;6903;49.480;11.102;2022-09-29T08:18:27;6.87;;;5.53;;
13660;SDS011;6903;49.480;11.102;2022-09-29T08:20:53;6.23;;;4.73;;
13660;SDS011;6903;49.480;11.102;2022-09-29T08:23:20;5.30;;;4.80;;
13660;SDS011;6903;49.480;11.102;2022-09-29T08:25:46;5.23;;;4.77;;
13660;SDS011;6903;49.480;11.102;2022-09-29T08:28:11;5.17;;;4.50;;
13660;SDS011;6903;49.480;11.102;2022-09-29T08:30:37;5.93;;;4.90;;
13660;SDS011;6903;49.480;11.102;2022-09-29T08:33:02;5.83;;;4.60;;
13660;SDS011;6903;49.480;11.102;2022-09-29T08:35:28;4.97;;;4.03;;
13660;SDS011;6903;49.480;11.102;2022-09-29T08:37:53;5.43;;;4.80;;
13660;SDS011;6903;49.480;11.102;2022-09-29T08:40:22;5.37;;;4.73;;
13660;SDS011;6903;49.480;11.102;2022-09-29T08:45:46;5.20;;;4.40;;
13660;SDS011;6903;49.480;11.102;2022-09-29T08:48:19;5.00;;;4.50;;
13660;SDS011;6903;49.480;11.102;2022-09-29T08:50:57;6.03;;;4.83;;
13660;SDS011;6903;49.480;11.102;2022-09-29T08:53:27;5.10;;;4.60;;
13660;SDS011;6903;49.480;11.102;2022-09-29T08:55:56;5.82;;;4.78;;
13660;SDS011;6903;49.480;11.102;2022-09-29T08:58:24;7.28;;;5.03;;
13660;SDS011;6903;49.480;11.102;2022-09-29T09:06:11;5.88;;;4.20;;
13660;SDS011;6903;49.480;11.102;2022-09-29T09:11:32;7.18;;;4.57;;
13660;SDS011;6903;49.480;11.102;2022-09-29T09:17:28;8.10;;;5.05;;
13660;SDS011;6903;49.480;11.102;2022-09-29T09:19:58;5.47;;;4.38;;
13660;SDS011;6903;49.480;11.102;2022-09-29T09:22:40;7.68;;;4.20;;
13660;SDS011;6903;49.480;11.102;2022-09-29T09:25:18;6.50;;;4.22;;
13660;SDS011;6903;49.480;11.102;2022-09-29T09:30:38;5.90;;;4.57;;
13660;SDS011;6903;49.480;11.102;2022-09-29T09:33:13;5.28;;;4.70;;
13660;SDS011;6903;49.480;11.102;2022-09-29T09:36:00;4.60;;;4.10;;
13660;SDS011;6903;49.480;11.102;2022-09-29T09:38:38;5.75;;;4.43;;
13660;SDS011;6903;49.480;11.102;2022-09-29T09:41:10;7.68;;;4.47;;
13660;SDS011;6903;49.480;11.102;2022-09-29T09:43:46;6.70;;;4.22;;
13660;SDS011;6903;49.480;11.102;2022-09-29T09:49:34;5.32;;;4.13;;
13660;SDS011;6903;49.480;11.102;2022-09-29T09:54:24;6.65;;;4.40;;
13660;SDS011;6903;49.480;11.102;2022-09-29T10:02:17;6.05;;;4.68;;
13660;SDS011;6903;49.480;11.102;2022-09-29T10:04:45;7.88;;;4.60;;
13660;SDS011;6903;49.480;11.102;2022-09-29T10:07:14;5.90;;;4.80;;
13660;SDS011;6903;49.480;11.102;2022-09-29T10:09:40;6.80;;;4.72;;
13660;SDS011;6903;49.480;11.102;2022-09-29T10:12:07;7.80;;;5.20;;
13660;SDS011;6903;49.480;11.102;2022-09-29T10:14:39;7.25;;;5.10;;
13660;SDS011;6903;49.480;11.102;2022-09-29T10:17:09;6.05;;;4.20;;
13660;SDS011;6903;49.480;11.102;2022-09-29T10:22:25;6.05;;;4.28;;
13660;SDS011;6903;49.480;11.102;2022-09-29T10:24:52;5.00;;;4.00;;
13660;SDS011;6903;49.480;11.102;2022-09-29T10:27:29;6.30;;;4.78;;
13660;SDS011;6903;49.480;11.102;2022-09-29T10:29:55;6.50;;;4.78;;
13660;SDS011;6903;49.480;11.102;2022-09-29T10:32:26;6.18;;;5.22;;
13660;SDS011;6903;49.480;11.102;2022-09-29T10:35:02;7.50;;;4.45;;
13660;SDS011;6903;49.480;11.102;2022-09-29T10:37:58;6.78;;;4.25;;
13660;SDS011;6903;49.480;11.102;2022-09-29T10:40:26;8.20;;;4.38;;
13660;SDS011;6903;49.480;11.102;2022-09-29T10:42:52;4.75;;;3.70;;
13660;SDS011;6903;49.480;11.102;2022-09-29T10:45:19;5.70;;;3.58;;
13660;SDS011;6903;49.480;11.102;2022-09-29T10:50:24;5.13;;;3.50;;
13660;SDS011;6903;49.480;11.102;2022-09-29T10:56:18;8.98;;;4.70;;
13660;SDS011;6903;49.480;11.102;2022-09-29T10:58:53;4.85;;;4.10;;
13660;SDS011;6903;49.480;11.102;2022-09-29T11:01:21;6.20;;;3.88;;
13660;SDS011;6903;49.480;11.102;2022-09-29T11:03:48;7.70;;;4.20;;
13660;SDS011;6903;49.480;11.102;2022-09-29T11:06:14;7.50;;;4.50;;
13660;SDS011;6903;49.480;11.102;2022-09-29T11:11:51;6.75;;;4.38;;
13660;SDS011;6903;49.480;11.102;2022-09-29T11:14:26;7.22;;;4.60;;
13660;SDS011;6903;49.480;11.102;2022-09-29T11:16:56;8.23;;;4.03;;
13660;SDS011;6903;49.480;11.102;2022-09-29T11:19:23;7.00;;;4.35;;
13660;SDS011;6903;49.480;11.102;2022-09-29T11:30:21;5.50;;;3.58;;
13660;SDS011;6903;49.480;11.102;2022-09-29T11:38:40;4.15;;;2.55;;
13660;SDS011;6903;49.480;11.102;2022-09-29T11:41:19;3.75;;;2.47;;
13660;SDS011;6903;49.480;11.102;2022-09-29T11:49:29;4.50;;;2.83;;
13660;SDS011;6903;49.480;11.102;2022-09-29T11:55:11;5.53;;;2.40;;
13660;SDS011;6903;49.480;11.102;2022-09-29T11:58:06;4.82;;;2.55;;
13660;SDS011;6903;49.480;11.102;2022-09-29T12:00:50;4.32;;;2.30;;
13660;SDS011;6903;49.480;11.102;2022-09-29T12:06:27;2.65;;;2.40;;
13660;SDS011;6903;49.480;11.102;2022-09-29T12:09:07;4.25;;;2.50;;
13660;SDS011;6903;49.480;11.102;2022-09-29T12:14:32;4.45;;;2.40;;
13660;SDS011;6903;49.480;11.102;2022-09-29T12:17:13;3.05;;;2.40;;
13660;SDS011;6903;49.480;11.102;2022-09-29T12:19:42;4.20;;;2.78;;
13660;SDS011;6903;49.480;11.102;2022-09-29T12:22:12;3.63;;;2.78;;
13660;SDS011;6903;49.480;11.102;2022-09-29T12:24:44;5.00;;;2.50;;
13660;SDS011;6903;49.480;11.102;2022-09-29T12:27:34;3.65;;;2.70;;
13660;SDS011;6903;49.480;11.102;2022-09-29T12:32:36;3.90;;;3.05;;
13660;SDS011;6903;49.480;11.102;2022-09-29T12:35:08;3.40;;;2.70;;
13660;SDS011;6903;49.480;11.102;2022-09-29T12:38:04;3.53;;;2.83;;
13660;SDS011;6903;49.480;11.102;2022-09-29T12:40:41;4.05;;;3.08;;
13660;SDS011;6903;49.480;11.102;2022-09-29T12:46:16;5.45;;;3.40;;
13660;SDS011;6903;49.480;11.102;2022-09-29T12:48:57;3.88;;;3.25;;
13660;SDS011;6903;49.480;11.102;2022-09-29T12:56:34;4.10;;;2.42;;
13660;SDS011;6903;49.480;11.102;2022-09-29T12:59:04;6.53;;;3.05;;
13660;SDS011;6903;49.480;11.102;2022-09-29T13:01:34;3.07;;;2.43;;
13660;SDS011;6903;49.480;11.102;2022-09-29T13:07:08;4.77;;;2.20;;
13660;SDS011;6903;49.480;11.102;2022-09-29T13:23:19;5.27;;;2.63;;
13660;SDS011;6903;49.480;11.102;2022-09-29T13:28:50;3.63;;;2.80;;
13660;SDS011;6903;49.480;11.102;2022-09-29T13:31:22;4.00;;;2.83;;
13660;SDS011;6903;49.480;11.102;2022-09-29T13:33:52;4.43;;;3.23;;
13660;SDS011;6903;49.480;11.102;2022-09-29T13:36:26;5.10;;;3.37;;
13660;SDS011;6903;49.480;11.102;2022-09-29T13:38:57;8.63;;;4.53;;
13660;SDS011;6903;49.480;11.102;2022-09-29T13:46:32;4.20;;;2.67;;
13660;SDS011;6903;49.480;11.102;2022-09-29T13:56:47;5.67;;;2.83;;
13660;SDS011;6903;49.480;11.102;2022-09-29T13:59:14;4.00;;;2.73;;
13660;SDS011;6903;49.480;11.102;2022-09-29T14:01:45;4.13;;;3.10;;
13660;SDS011;6903;49.480;11.102;2022-09-29T14:04:31;3.13;;;2.83;;
13660;SDS011;6903;49.480;11.102;2022-09-29T14:07:07;4.27;;;3.87;;
13660;SDS011;6903;49.480;11.102;2022-09-29T14:09:37;5.80;;;4.07;;
13660;SDS011;6903;49.480;11.102;2022-09-29T14:12:08;5.63;;;4.27;;
13660;SDS011;6903;49.480;11.102;2022-09-29T14:14:43;8.13;;;4.43;;
13660;SDS011;6903;49.480;11.102;2022-09-29T14:17:27;6.57;;;4.33;;
13660;SDS011;6903;49.480;11.102;2022-09-29T14:20:02;6.60;;;4.73;;
13660;SDS011;6903;49.480;11.102;2022-09-29T14:27:39;9.40;;;7.07;;
13660;SDS011;6903;49.480;11.102;2022-09-29T14:30:19;8.43;;;6.57;;
13660;SDS011;6903;49.480;11.102;2022-09-29T14:33:02;10.40;;;7.57;;
13660;SDS011;6903;49.480;11.102;2022-09-29T14:35:36;16.87;;;11.37;;
13660;SDS011;6903;49.480;11.102;2022-09-29T14:38:05;13.53;;;10.07;;
13660;SDS011;6903;49.480;11.102;2022-09-29T14:40:38;8.83;;;5.50;;
13660;SDS011;6903;49.480;11.102;2022-09-29T14:43:16;8.13;;;5.30;;
13660;SDS011;6903;49.480;11.102;2022-09-29T14:52:00;5.63;;;5.03;;
13660;SDS011;6903;49.480;11.102;2022-09-29T15:00:16;10.27;;;7.60;;
13660;SDS011;6903;49.480;11.102;2022-09-29T15:02:47;9.47;;;8.13;;
13660;SDS011;6903;49.480;11.102;2022-09-29T15:05:26;13.27;;;9.27;;
13660;SDS011;6903;49.480;11.102;2022-09-29T15:07:53;11.53;;;10.33;;
13660;SDS011;6903;49.480;11.102;2022-09-29T15:10:24;8.20;;;6.30;;
13660;SDS011;6903;49.480;11.102;2022-09-29T15:15:48;7.07;;;6.30;;
13660;SDS011;6903;49.480;11.102;2022-09-29T15:18:36;10.00;;;6.87;;
13660;SDS011;6903;49.480;11.102;2022-09-29T15:21:10;8.23;;;7.30;;
13660;SDS011;6903;49.480;11.102;2022-09-29T15:23:51;12.83;;;8.90;;
13660;SDS011;6903;49.480;11.102;2022-09-29T15:26:21;6.47;;;5.27;;
13660;SDS011;6903;49.480;11.102;2022-09-29T15:28:49;7.10;;;5.47;;
13660;SDS011;6903;49.480;11.102;2022-09-29T15:31:16;6.83;;;5.87;;
13660;SDS011;6903;49.480;11.102;2022-09-29T15:33:45;7.63;;;5.77;;
13660;SDS011;6903;49.480;11.102;2022-09-29T15:38:47;8.00;;;5.50;;
13660;SDS011;6903;49.480;11.102;2022-09-29T15:41:17;7.23;;;5.20;;
13660;SDS011;6903;49.480;11.102;2022-09-29T15:44:00;7.93;;;5.10;;
13660;SDS011;6903;49.480;11.102;2022-09-29T15:46:38;7.77;;;5.87;;
13660;SDS011;6903;49.480;11.102;2022-09-29T15:51:32;10.53;;;6.33;;
13660;SDS011;6903;49.480;11.102;2022-09-29T15:53:58;8.97;;;6.60;;
13660;SDS011;6903;49.480;11.102;2022-09-29T15:56:28;9.30;;;7.47;;
13660;SDS011;6903;49.480;11.102;2022-09-29T15:58:57;9.03;;;6.80;;
13660;SDS011;6903;49.480;11.102;2022-09-29T16:01:22;6.90;;;6.17;;
13660;SDS011;6903;49.480;11.102;2022-09-29T16:03:49;6.43;;;5.13;;
13660;SDS011;6903;49.480;11.102;2022-09-29T16:06:28;6.10;;;5.53;;
13660;SDS011;6903;49.480;11.102;2022-09-29T16:09:04;8.40;;;5.17;;
13660;SDS011;6903;49.480;11.102;2022-09-29T16:11:38;6.80;;;4.60;;
13660;SDS011;6903;49.480;11.102;2022-09-29T16:16:41;4.37;;;3.90;;
13660;SDS011;6903;49.480;11.102;2022-09-29T16:19:12;5.40;;;4.10;;
13660;SDS011;6903;49.480;11.102;2022-09-29T16:21:43;5.97;;;4.93;;
13660;SDS011;6903;49.480;11.102;2022-09-29T16:24:12;7.10;;;6.30;;
13660;SDS011;6903;49.480;11.102;2022-09-29T16:26:43;9.23;;;6.83;;
13660;SDS011;6903;49.480;11.102;2022-09-29T16:31:40;14.87;;;7.50;;
13660;SDS011;6903;49.480;11.102;2022-09-29T16:36:48;10.30;;;8.10;;
13660;SDS011;6903;49.480;11.102;2022-09-29T16:39:26;13.37;;;8.20;;
13660;SDS011;6903;49.480;11.102;2022-09-29T16:41:58;9.67;;;7.20;;
13660;SDS011;6903;49.480;11.102;2022-09-29T16:44:30;11.70;;;7.60;;
13660;SDS011;6903;49.480;11.102;2022-09-29T16:49:50;12.27;;;7.70;;
13660;SDS011;6903;49.480;11.102;2022-09-29T16:52:18;12.37;;;8.87;;
13660;SDS011;6903;49.480;11.102;2022-09-29T16:54:51;8.63;;;7.23;;
13660;SDS011;6903;49.480;11.102;2022-09-29T16:57:25;11.57;;;7.50;;
13660;SDS011;6903;49.480;11.102;2022-09-29T16:59:55;7.73;;;6.57;;
13660;SDS011;6903;49.480;11.102;2022-09-29T17:02:20;9.80;;;7.07;;
13660;SDS011;6903;49.480;11.102;2022-09-29T17:04:47;8.27;;;7.47;;
13660;SDS011;6903;49.480;11.102;2022-09-29T17:07:14;8.57;;;6.93;;
13660;SDS011;6903;49.480;11.102;2022-09-29T17:09:45;8.83;;;7.60;;
13660;SDS011;6903;49.480;11.102;2022-09-29T17:12:12;9.43;;;7.70;;
13660;SDS011;6903;49.480;11.102;2022-09-29T17:14:38;10.63;;;8.60;;
13660;SDS011;6903;49.480;11.102;2022-09-29T17:17:03;10.73;;;7.67;;
13660;SDS011;6903;49.480;11.102;2022-09-29T17:19:29;12.60;;;8.83;;
13660;SDS011;6903;49.480;11.102;2022-09-29T17:21:54;12.73;;;9.77;;
13660;SDS011;6903;49.480;11.102;2022-09-29T17:24:20;13.63;;;9.23;;
13660;SDS011;6903;49.480;11.102;2022-09-29T17:26:45;14.80;;;10.37;;
13660;SDS011;6903;49.480;11.102;2022-09-29T17:29:29;17.53;;;11.30;;
13660;SDS011;6903;49.480;11.102;2022-09-29T17:31:56;11.40;;;10.00;;
13660;SDS011;6903;49.480;11.102;2022-09-29T17:34:21;12.10;;;9.30;;
13660;SDS011;6903;49.480;11.102;2022-09-29T17:36:50;13.30;;;10.73;;
13660;SDS011;6903;49.480;11.102;2022-09-29T17:39:16;13.03;;;9.70;;
13660;SDS011;6903;49.480;11.102;2022-09-29T17:41:41;10.87;;;8.00;;
13660;SDS011;6903;49.480;11.102;2022-09-29T17:44:07;9.93;;;7.47;;
13660;SDS011;6903;49.480;11.102;2022-09-29T17:46:34;12.47;;;8.20;;
13660;SDS011;6903;49.480;11.102;2022-09-29T17:49:01;13.83;;;9.63;;